• Join FlightAware (Why Join?)
  • Login
  • US Flag GB Flag 
19:14 EST


 

Airport Tracker/Info


-or-


 

Live Flight TrackerFlight Track Log ✈ N9009Y ✈ 30-Mar-2014 ✈ MYLS / SML - KFXE

Flight Track Log - Related Links

Times and Time Zones

All times are in EDT time to prevent confusion due to time zone crossing. See the N9009Y flight status page for this flight to view local times or setup timezone preferences in your user account.

Time Position Orientation Groundspeed Altitude Reporting Facility
EDT Latitude Longitude Course Direction KTS MPH feet Rate Location/Type
09:45 23.7383 -75.3833 302° West 175 201 4,200  Level Miami Center
09:46 23.7575 -75.4194 300° West 162 186 4,700 600 Climbing Miami Center
09:47 23.7747 -75.4489 303° West 136 157 5,500 660 Climbing Miami Center
09:48 23.7936 -75.4758 307° West 121 139 6,100 540 Climbing Miami Center
09:49 23.8106 -75.5031 304° West 116 133 6,600 480 Climbing Miami Center
09:50 23.7002 -75.4919 302° West  Level FlightAware Approximate
09:50 23.8256 -75.5369 296° West 116 133 7,100  Level Miami Center
09:51 23.8425 -75.5708 299° West 122 140 7,100  Level Miami Center
09:52 23.8658 -75.6092 304° West 135 155 7,200  Climbing Miami Center
09:53 23.8831 -75.6544 293° West 145 167 7,100  Descending Miami Center
09:54 23.9000 -75.6975 293° West 156 180 7,200  Climbing Miami Center
09:55 23.9275 -75.7381 307° West 156 180 7,200  Level Miami Center
09:56 23.9531 -75.7789 304° West 162 186 7,200  Level Miami Center
09:57 23.9803 -75.8172 308° West 168 193 7,200  Level Miami Center
09:58 24.0078 -75.8625 304° West 168 193 7,200  Level Miami Center
09:59 24.0311 -75.9056 301° West 168 193 7,200  Level Miami Center
10:00 24.0544 -75.9486 301° West 168 193 7,200  Level Miami Center
10:01 24.0756 -75.9939 297° West 168 193 7,200 -60 Level Miami Center
10:02 24.0906 -76.0394 290° West 168 193 7,100 -60 Descending Miami Center
10:03 24.1033 -76.0872 286° West 168 193 7,100  Level Miami Center
10:04 24.1203 -76.1347 291° West 168 193 7,100  Level Miami Center
10:05 24.1414 -76.1803 297° West 168 193 7,100 -60 Level Miami Center
10:06 24.1625 -76.2256 297° West 168 193 7,000  Descending Miami Center
10:07 24.1878 -76.2711 301° West 168 193 7,100  Climbing Miami Center
10:08 24.2108 -76.3167 299° West 173 199 7,100  Level Miami Center
10:09 24.2339 -76.3597 300° West 173 199 7,100  Level Miami Center
10:10 24.2656 -76.4031 309° West 173 199 7,100  Level Miami Center
10:11 24.2864 -76.4347 306° West 173 199 7,100  Level Miami Center
10:12 24.3242 -76.4825 311° West 173 199 7,100  Level Miami Center
10:13 24.3536 -76.5236 308° West 173 199 7,100  Level Miami Center
10:14 24.3767 -76.5667 300° West 173 199 7,100  Level Miami Center
10:15 24.4061 -76.6125 305° West 173 199 7,100  Level Miami Center
10:16 24.4311 -76.6558 302° West 173 199 7,100  Level Miami Center
10:17 24.4542 -76.7014 299° West 173 199 7,100  Level Miami Center
10:18 24.4836 -76.7447 307° West 168 193 7,100  Level Miami Center
10:19 24.5086 -76.7903 301° West 168 193 7,100  Level Miami Center
10:20 24.5358 -76.8314 306° West 168 193 7,100 180 Level Miami Center
10:21 24.5650 -76.8681 311° West 168 193 7,500 300 Climbing Miami Center
10:22 24.5922 -76.9022 311° West 157 181 7,800 240 Climbing Miami Center
10:23 24.6214 -76.9389 311° West 152 175 8,000 60 Climbing Miami Center
10:24 24.6508 -76.9731 313° West 157 181 8,000  Level Miami Center
10:25 24.6778 -77.0167 304° West 162 186 8,100  Climbing Miami Center
10:26 24.7069 -77.0578 308° West 167 192 8,100  Level Miami Center
10:27 24.7342 -77.0944 309° West 172 198 8,100  Level Miami Center
10:28 24.7633 -77.1333 310° West 172 198 8,100  Level Miami Center
10:29 24.7883 -77.1747 304° West 172 198 8,200  Climbing Miami Center
10:30 24.8156 -77.2136 308° West 172 198 8,200  Level Miami Center
10:31 24.8447 -77.2550 308° West 172 198 8,200  Level Miami Center
10:32 24.8717 -77.2917 309° West 172 198 8,200  Level Miami Center
10:33 24.8986 -77.3308 307° West 172 198 8,300  Climbing Miami Center
10:34 24.9278 -77.3675 311° West 167 192 8,200 -60 Descending Miami Center
10:35 24.9592 -77.4019 315° West 167 192 8,200  Level Miami Center
10:36 24.9883 -77.4389 311° West 162 186 8,200  Level Miami Center
10:37 25.0172 -77.4711 315° West 162 186 8,200  Level Miami Center
10:38 25.0403 -77.5125 302° West 154 177 8,200  Level Miami Center
10:39 25.0608 -77.5539 299° West 154 177 8,200 -60 Level Miami Center
10:40 25.0836 -77.5931 303° West 154 177 8,100 -120 Descending Miami Center
10:41 25.1106 -77.6322 307° West 154 177 8,000 -60 Descending Miami Center
10:42 25.1397 -77.6669 313° West 154 177 8,000  Level Miami Center
10:43 25.1667 -77.7061 307° West 154 177 8,000  Level Miami Center
10:44 25.1917 -77.7408 309° West 154 177 8,100  Climbing Miami Center
10:45 25.2186 -77.7778 309° West 154 177 8,000 -60 Descending Miami Center
10:46 25.2411 -77.8169 302° West 154 177 8,000  Level Miami Center
10:47 25.2639 -77.8561 303° West 154 177 8,100 60 Climbing Miami Center
10:48 25.2908 -77.8931 309° West 149 171 8,200 60 Climbing Miami Center
10:49 25.3158 -77.9256 310° West 149 171 8,300 -60 Climbing Miami Center
10:50 25.3342 -77.9669 296° West 149 171 8,100 -120 Descending Miami Center
10:51 25.3528 -78.0086 296° West 149 171 8,100  Level Miami Center
10:52 25.3733 -78.0481 300° West 149 171 8,200 240 Climbing Miami Center
10:53 25.3917 -78.0894 296° West 143 165 8,600 360 Climbing Miami Center
10:54 25.4061 -78.1264 293° West 137 158 9,000 60 Climbing Miami Center
10:55 25.4206 -78.1611 295° West 132 152 8,800 -60 Descending Miami Center
10:56 25.4408 -78.2006 300° West 137 158 8,900 360 Climbing Miami Center
10:57 25.4575 -78.2328 300° West 131 151 9,600 480 Climbing Miami Center
10:58 25.4653 -78.2697 283° West 125 144 9,900 240 Climbing Miami Center
10:59 25.4775 -78.3044 291° West 120 138 10,100  Climbing Miami Center
11:00 25.4875 -78.3461 285° West 128 147 10,000 -60 Descending Miami Center
11:01 25.4914 -78.3944 275° West 145 167 10,000  Level Miami Center
11:02 25.5056 -78.4361 291° West 145 167 10,000  Level Miami Center
11:03 25.5156 -78.4822 284° West 145 167 10,000 -60 Level Miami Center
11:04 25.5317 -78.5239 293° West 145 167 9,900 -300 Descending Miami Center
11:05 25.5583 -78.5681 304° West 158 182 9,400 -480 Descending Miami Center
11:06 25.5786 -78.6167 295° West 163 188 9,000 -420 Descending Miami Center
11:07 25.5992 -78.6608 297° West 163 188 8,600 -420 Descending Miami Center
11:08 25.6111 -78.7092 285° West 163 188 8,200 -300 Descending Miami Center
11:09 25.6250 -78.7556 288° West 163 188 8,000 -120 Descending Miami Center
11:10 25.6392 -78.7997 290° West 158 182 8,000 -60 Level Miami Center
11:11 25.6594 -78.8392 300° West 153 176 7,900 -120 Descending Miami Center
11:12 25.6756 -78.8786 294° West 153 176 7,800  Descending Miami Center
11:13 25.6939 -78.9206 296° West 148 170 7,900 60 Climbing Miami Center
11:14 25.7078 -78.9622 290° West 148 170 8,000 60 Climbing Miami Center
11:15 25.7239 -79.0039 293° West 148 170 8,100  Climbing Miami Center
11:16 25.7256 -79.0456 273° West 148 170 8,100 -300 Level Miami Center
11:17 25.7353 -79.0917 283° West 148 170 7,500 -600 Descending Miami Center
11:18 25.7450 -79.1381 283° West 154 177 6,900 -660 Descending Miami Center
11:19 25.7567 -79.1844 286° West 154 177 6,200 -720 Descending Miami Center
11:20 25.7728 -79.2308 291° West 159 183 5,500 -660 Descending Miami Center
11:21 25.7783 -79.2772 278° West 159 183 4,900 -480 Descending Miami Center
11:22 25.7775 -79.3233 269° West 158 182 4,600 -300 Descending Miami Center
11:23 25.7831 -79.3672 278° West 153 176 4,400 -240 Descending Miami Center
11:24 25.7906 -79.4089 281° West 148 170 4,200 -120 Descending Miami Center
11:25 25.8003 -79.4600 282° West 134 154 4,200 -60 Level Miami Center
11:26 25.8081 -79.4925 285° West 138 159 4,100 -120 Descending Miami Center
11:26 25.8078 -79.5017 268° West 144 166 4,100 -120 Level Miami Center
11:27 25.8156 -79.5389 283° West 143 165 4,000 -120 Descending Miami Center
11:27 25.8153 -79.5503 268° West 144 166 4,000 -120 Level Miami Center
11:28 25.8253 -79.5783 292° West 143 165 3,900 -120 Descending Miami Center
11:29 25.8247 -79.5989 268° West 146 168 3,900  Level Miami Center
11:29 25.8369 -79.6200 303° West 143 165 3,900 -240 Level Miami Center
11:30 25.8472 -79.6364 305° West 151 174 3,700 -600 Descending Miami Center
11:30 25.8719 -79.6508 332° Northwest 143 165 3,300 -600 Descending Miami Center
11:31 25.8842 -79.6650 314° West 163 188 3,100 -240 Descending Miami Center
11:31 25.9089 -79.6817 329° Northwest 155 178 3,100 -120 Level Miami Center
11:32 25.9214 -79.6914 325° Northwest 152 175 3,000 -120 Descending Miami Center
11:32 25.9461 -79.7011 341° North 155 178 3,000  Level Miami Center
11:33 25.9608 -79.7039 350° North 143 165 3,000  Level Miami Center
11:33 25.9856 -79.7114 345° North 147 169 3,000 -120 Level Miami Center
11:34 26.0003 -79.7186 336° Northwest 144 166 2,900 -120 Descending Miami Center
11:34 26.0253 -79.7214 354° North 147 169 2,900  Level Miami Center
11:35 26.0417 -79.7289 338° Northwest 142 163 2,900  Level Miami Center
11:35 26.0625 -79.7339 348° North 140 161 2,900 120 Level Miami Center
11:36 26.0728 -79.7411 328° Northwest 138 159 3,000 60 Climbing Miami Center
11:37 26.1164 -79.7561 343° North 142 163 3,000 -120 Level Miami Center
11:38 26.1536 -79.7708 340° North 142 163 2,800 -300 Descending Miami Center
11:39 26.1908 -79.7881 337° Northwest 162 186 2,500 -360 Descending Miami Center
11:40 26.2089 -79.8278 297° West 161 185 2,100 -240 Descending Miami Center
11:41 26.2081 -79.8764 269° West 150 173 2,100 -60 Level Miami Center
11:42 26.2050 -79.9203 266° West 152 175 2,000 -120 Descending Miami Center
11:43 26.2103 -79.9692 277° West 140 161 1,900 -180 Descending Miami Center
11:44 26.2072 -80.0083 265° West 130 150 1,700 -240 Descending Miami Center
11:45 26.2042 -80.0569 266° West 134 154 1,500 -240 Descending Miami Center
11:46 26.2011 -80.0961 265° West 126 145 1,300 -360 Descending Miami Center
11:47 26.2006 -80.1286 269° West 109 125 800 -600 Descending Miami Center
11:49 26.1833 -80.1667 287° West  Level FlightAware Approximate
11:56 26.1973 -80.1707 345° North  Level Estimated